Time;durP1;ratioP1;P1;durP2;ratioP2;P2;SDS_P1;SDS_P2;PMS_P1;PMS_P2;Temp;Humidity;BMP_temperature;BMP_pressure;BME280_temperature;BME280_humidity;BME280_pressure;Samples;Min_cycle;Max_cycle;Signal;HPM_P1;HPM_P2
2023/07/22 00:01:38;;;;;;;4.65;3.80;;;16.70;99.90;;;;;;5046341;28;20144;-42
2023/07/22 00:04:03;;;;;;;4.28;3.88;;;16.70;99.90;;;;;;5046284;28;20013;-41
2023/07/22 00:06:30;;;;;;;5.40;4.03;;;16.60;99.90;;;;;;5045939;28;20069;-42
2023/07/22 00:08:55;;;;;;;4.95;4.15;;;16.60;99.90;;;;;;5045603;28;20385;-43
2023/07/22 00:11:21;;;;;;;4.75;4.25;;;16.60;99.90;;;;;;5046357;28;20021;-43
2023/07/22 00:13:46;;;;;;;4.97;4.07;;;16.60;99.90;;;;;;5046201;28;20460;-43
2023/07/22 00:16:12;;;;;;;4.65;4.13;;;16.60;99.90;;;;;;5045911;28;20139;-42
2023/07/22 00:18:38;;;;;;;4.53;3.92;;;16.60;99.90;;;;;;5045775;28;20029;-43
2023/07/22 00:21:04;;;;;;;5.85;4.68;;;16.60;99.90;;;;;;5046091;28;20032;-42
2023/07/22 00:23:30;;;;;;;6.32;4.97;;;16.50;99.90;;;;;;5045849;28;20020;-43
2023/07/22 00:25:55;;;;;;;7.10;5.30;;;16.60;99.90;;;;;;5045772;28;20033;-42
2023/07/22 00:28:23;;;;;;;4.97;4.38;;;16.50;99.90;;;;;;5045398;28;20019;-42
2023/07/22 00:30:49;;;;;;;5.97;4.60;;;16.60;99.90;;;;;;5045440;28;20025;-41
2023/07/22 00:33:15;;;;;;;7.03;4.95;;;16.50;99.90;;;;;;5045484;28;20094;-42
2023/07/22 00:35:40;;;;;;;6.32;4.75;;;16.60;99.90;;;;;;5045552;28;20033;-41
2023/07/22 00:38:06;;;;;;;6.20;5.00;;;16.50;99.90;;;;;;5045476;28;20120;-42
2023/07/22 00:40:32;;;;;;;6.13;4.95;;;16.50;99.90;;;;;;5045301;28;20075;-42
2023/07/22 00:42:59;;;;;;;6.22;5.28;;;16.50;99.90;;;;;;5046010;28;20021;-42
2023/07/22 00:45:24;;;;;;;4.68;4.18;;;16.40;99.90;;;;;;5045486;28;20102;-42
2023/07/22 00:47:50;;;;;;;6.50;5.00;;;16.40;99.90;;;;;;5045343;28;20033;-41
2023/07/22 00:50:18;;;;;;;5.32;4.72;;;16.40;99.90;;;;;;5045800;28;20487;-42
2023/07/22 00:52:44;;;;;;;6.07;4.63;;;16.40;99.90;;;;;;5045260;28;20025;-41
2023/07/22 00:55:10;;;;;;;5.53;4.63;;;16.40;99.90;;;;;;5045084;28;20075;-41
2023/07/22 00:57:36;;;;;;;5.78;4.97;;;16.30;99.90;;;;;;5045316;28;20029;-41
2023/07/22 01:00:03;;;;;;;6.00;5.00;;;16.30;99.90;;;;;;5045325;28;20039;-41
2023/07/22 01:02:28;;;;;;;6.47;5.47;;;16.30;99.90;;;;;;5046041;28;20551;-42
2023/07/22 01:04:54;;;;;;;6.53;5.25;;;16.30;99.90;;;;;;5044234;28;20024;-43
2023/07/22 01:07:20;;;;;;;7.13;5.95;;;16.30;99.90;;;;;;5045625;28;20052;-42
2023/07/22 01:09:45;;;;;;;6.97;5.78;;;16.40;99.90;;;;;;5045099;28;20069;-42
2023/07/22 01:12:11;;;;;;;7.25;5.80;;;16.40;99.90;;;;;;5044436;28;20021;-42
2023/07/22 01:14:39;;;;;;;7.43;6.30;;;16.40;99.90;;;;;;5045076;28;20017;-42
2023/07/22 01:17:14;;;;;;;6.32;5.43;;;16.40;99.90;;;;;;5044306;28;20139;-42
2023/07/22 01:19:40;;;;;;;7.43;5.57;;;16.50;99.90;;;;;;5044111;28;20032;-42
2023/07/22 01:22:07;;;;;;;6.95;5.10;;;16.50;99.90;;;;;;5044911;28;20040;-42
2023/07/22 01:24:33;;;;;;;7.35;5.72;;;16.50;99.90;;;;;;5045176;28;20512;-42
2023/07/22 01:26:59;;;;;;;6.63;5.78;;;16.50;99.90;;;;;;5044014;28;20036;-42
2023/07/22 01:29:26;;;;;;;7.63;5.88;;;16.60;99.90;;;;;;5044939;28;20029;-41
2023/07/22 01:31:53;;;;;;;6.35;5.57;;;16.60;99.90;;;;;;5045348;28;20032;-41
2023/07/22 01:34:20;;;;;;;7.63;6.07;;;16.60;99.90;;;;;;5044379;28;20032;-41
2023/07/22 01:36:49;;;;;;;5.82;5.03;;;16.60;99.90;;;;;;5044934;28;20033;-42
2023/07/22 01:39:15;;;;;;;6.55;5.70;;;16.60;99.90;;;;;;5045498;28;20021;-42
2023/07/22 01:41:41;;;;;;;8.23;5.72;;;16.60;99.90;;;;;;5043952;28;20039;-41
2023/07/22 01:44:12;;;;;;;6.38;5.70;;;16.50;99.90;;;;;;5045248;28;20017;-41
2023/07/22 01:46:38;;;;;;;7.53;6.07;;;16.50;99.90;;;;;;5045169;28;20032;-41
2023/07/22 01:49:09;;;;;;;7.35;6.20;;;16.50;99.90;;;;;;5045933;28;20025;-42
2023/07/22 01:51:37;;;;;;;8.40;5.90;;;16.50;99.90;;;;;;5049346;28;20025;-41
2023/07/22 01:54:03;;;;;;;9.73;6.28;;;16.50;99.90;;;;;;5047875;28;20944;-43
2023/07/22 01:56:29;;;;;;;8.00;6.75;;;16.50;99.90;;;;;;5048723;28;20083;-42
2023/07/22 01:58:55;;;;;;;7.97;7.07;;;16.50;99.90;;;;;;5048574;28;20028;-43
2023/07/22 02:01:20;;;;;;;7.95;6.47;;;16.50;99.90;;;;;;5048201;28;20385;-42
2023/07/22 02:03:46;;;;;;;8.40;7.05;;;16.50;99.90;;;;;;5048544;28;20054;-43
2023/07/22 02:06:12;;;;;;;8.52;6.65;;;16.50;99.90;;;;;;5048538;28;20036;-41
2023/07/22 02:08:41;;;;;;;9.30;7.57;;;16.50;99.90;;;;;;5047210;28;20045;-42
2023/07/22 02:11:08;;;;;;;8.95;7.53;;;16.40;99.90;;;;;;5048632;28;20025;-42
2023/07/22 02:13:35;;;;;;;8.93;7.38;;;16.40;99.90;;;;;;5048643;28;20025;-42
2023/07/22 02:16:01;;;;;;;11.50;8.40;;;16.40;99.90;;;;;;5048505;28;20044;-42
2023/07/22 02:18:27;;;;;;;10.90;8.00;;;16.40;99.90;;;;;;5048553;28;20017;-42
2023/07/22 02:20:54;;;;;;;11.35;9.00;;;16.40;99.90;;;;;;5048558;28;20040;-42
2023/07/22 02:23:20;;;;;;;10.40;8.50;;;16.30;99.90;;;;;;5047719;28;20017;-41
2023/07/22 02:25:52;;;;;;;12.15;8.98;;;16.30;99.90;;;;;;5048066;28;20078;-42
2023/07/22 02:28:21;;;;;;;10.85;8.48;;;16.30;99.90;;;;;;5048723;28;20021;-42
2023/07/22 02:30:48;;;;;;;10.25;8.40;;;16.20;99.90;;;;;;5047276;28;20488;-43
2023/07/22 02:33:14;;;;;;;16.40;8.60;;;16.20;99.90;;;;;;5047694;28;20066;-43
2023/07/22 02:35:41;;;;;;;11.10;8.68;;;16.10;99.90;;;;;;5047857;28;20053;-42
2023/07/22 02:38:10;;;;;;;11.68;8.95;;;16.10;99.90;;;;;;5047402;28;20495;-42
2023/07/22 02:40:39;;;;;;;11.38;8.30;;;16.10;99.90;;;;;;5047992;28;20508;-43
2023/07/22 02:43:06;;;;;;;9.63;8.15;;;16.00;99.90;;;;;;5047298;28;20025;-42
2023/07/22 02:45:33;;;;;;;11.25;8.65;;;16.00;99.90;;;;;;5047776;28;20039;-42
2023/07/22 02:47:58;;;;;;;12.85;9.00;;;16.00;99.90;;;;;;5048416;28;20025;-43
2023/07/22 02:50:25;;;;;;;10.65;8.38;;;16.00;99.90;;;;;;5047475;28;20108;-41
2023/07/22 02:52:51;;;;;;;11.07;8.85;;;16.00;99.90;;;;;;5047738;28;20029;-42
2023/07/22 02:55:20;;;;;;;11.25;8.45;;;16.00;99.90;;;;;;5047429;28;20078;-42
2023/07/22 02:57:47;;;;;;;13.20;9.00;;;16.00;99.90;;;;;;5046973;28;20045;-42
2023/07/22 03:00:23;;;;;;;11.48;8.63;;;15.90;99.90;;;;;;5047118;28;20025;-41
2023/07/22 03:02:50;;;;;;;11.95;9.02;;;15.90;99.90;;;;;;5047947;28;20035;-42
2023/07/22 03:05:16;;;;;;;11.25;9.05;;;15.90;99.90;;;;;;5046831;28;20049;-41
2023/07/22 03:07:45;;;;;;;12.52;9.52;;;15.80;99.90;;;;;;5047747;28;20072;-42
2023/07/22 03:10:11;;;;;;;11.73;8.95;;;15.80;99.90;;;;;;5047262;28;20040;-41
2023/07/22 03:12:37;;;;;;;11.48;8.63;;;15.80;99.90;;;;;;5047351;28;20025;-42
2023/07/22 03:15:04;;;;;;;12.57;9.60;;;15.80;99.90;;;;;;5047377;28;20021;-42
2023/07/22 03:17:29;;;;;;;14.18;10.15;;;15.80;99.90;;;;;;5047759;28;20029;-42
2023/07/22 03:19:55;;;;;;;13.20;8.90;;;15.70;99.90;;;;;;5046080;28;20028;-42
2023/07/22 03:22:21;;;;;;;13.90;9.48;;;15.70;99.90;;;;;;5047201;28;20040;-43
2023/07/22 03:24:46;;;;;;;13.73;10.43;;;15.70;99.90;;;;;;5047471;28;20720;-42
2023/07/22 03:27:14;;;;;;;13.15;9.95;;;15.70;99.90;;;;;;5046637;28;20052;-42
2023/07/22 03:29:41;;;;;;;12.70;9.30;;;15.70;99.90;;;;;;5046807;28;20612;-42
2023/07/22 03:32:07;;;;;;;12.88;9.15;;;15.70;99.90;;;;;;5046696;28;20870;-41
2023/07/22 03:34:33;;;;;;;12.55;9.75;;;15.70;99.90;;;;;;5046298;28;20029;-43
2023/07/22 03:36:59;;;;;;;13.48;10.15;;;15.70;99.90;;;;;;5046449;28;20485;-42
2023/07/22 03:39:24;;;;;;;13.38;10.43;;;15.70;99.90;;;;;;5046333;28;20037;-43
2023/07/22 03:41:50;;;;;;;15.07;10.10;;;15.60;99.90;;;;;;5046876;28;20025;-41
2023/07/22 03:44:16;;;;;;;14.32;10.32;;;15.70;99.90;;;;;;5046430;28;20682;-41
2023/07/22 03:46:41;;;;;;;14.95;10.60;;;15.60;99.90;;;;;;5046200;28;20082;-42
2023/07/22 03:49:07;;;;;;;15.07;11.30;;;15.60;99.90;;;;;;5047238;28;20036;-42
2023/07/22 03:51:33;;;;;;;11.68;9.82;;;15.60;99.90;;;;;;5046715;28;20029;-41
2023/07/22 03:53:59;;;;;;;13.90;10.85;;;15.60;99.90;;;;;;5046913;28;20546;-42
2023/07/22 03:56:31;;;;;;;12.48;9.80;;;15.70;99.90;;;;;;5046833;28;20033;-41
2023/07/22 03:59:00;;;;;;;14.30;11.18;;;15.70;99.90;;;;;;5047238;28;20033;-42
2023/07/22 04:01:31;;;;;;;14.00;10.68;;;15.60;99.90;;;;;;5046799;28;20020;-41
2023/07/22 04:03:57;;;;;;;14.45;10.93;;;15.60;99.90;;;;;;5047106;28;20071;-41
2023/07/22 04:06:23;;;;;;;14.05;10.52;;;15.70;99.90;;;;;;5046661;28;20049;-41
2023/07/22 04:08:49;;;;;;;14.38;10.57;;;15.60;99.90;;;;;;5045489;28;20049;-41
2023/07/22 04:11:14;;;;;;;14.75;11.32;;;15.60;99.90;;;;;;5045723;28;20021;-42
2023/07/22 04:13:42;;;;;;;13.95;10.45;;;15.60;99.90;;;;;;5046344;28;20044;-42
2023/07/22 04:16:08;;;;;;;15.93;11.55;;;15.60;99.90;;;;;;5045304;28;20017;-42
2023/07/22 04:18:34;;;;;;;15.23;11.32;;;15.60;99.90;;;;;;5046668;28;20131;-41
2023/07/22 04:21:00;;;;;;;14.65;10.38;;;15.60;99.90;;;;;;5045844;28;20399;-41
2023/07/22 04:23:38;;;;;;;16.35;10.93;;;15.60;99.90;;;;;;5045623;28;20036;-41
2023/07/22 04:26:10;;;;;;;13.35;10.38;;;15.60;99.90;;;;;;5045769;28;20036;-41
2023/07/22 04:28:38;;;;;;;15.00;10.40;;;15.60;99.90;;;;;;5042668;28;20025;-41
2023/07/22 04:31:13;;;;;;;12.98;9.65;;;15.60;99.90;;;;;;5045768;28;20099;-41
2023/07/22 04:33:45;;;;;;;13.82;10.85;;;15.60;99.90;;;;;;5045608;28;20025;-41
2023/07/22 04:36:10;;;;;;;15.20;10.70;;;15.60;99.90;;;;;;5045461;28;20044;-42
2023/07/22 04:38:36;;;;;;;14.30;9.93;;;15.60;99.90;;;;;;5045959;28;20032;-42
2023/07/22 04:41:04;;;;;;;12.48;9.55;;;15.70;99.90;;;;;;5046255;28;20021;-42
2023/07/22 04:43:30;;;;;;;12.70;9.85;;;15.70;99.90;;;;;;5045261;28;20029;-42
2023/07/22 04:45:56;;;;;;;15.00;9.68;;;15.80;99.90;;;;;;5046715;28;20028;-42
2023/07/22 04:48:23;;;;;;;13.10;10.35;;;15.80;99.90;;;;;;5045592;28;20029;-42
2023/07/22 04:50:49;;;;;;;14.80;10.38;;;15.80;99.90;;;;;;5045635;28;20043;-42
2023/07/22 04:53:17;;;;;;;12.57;10.20;;;15.80;99.90;;;;;;5045292;28;20408;-42
2023/07/22 04:55:45;;;;;;;14.93;10.38;;;15.90;99.90;;;;;;5045077;28;20032;-43
2023/07/22 04:58:11;;;;;;;13.90;9.93;;;15.90;99.90;;;;;;5045391;28;20047;-43
2023/07/22 05:00:37;;;;;;;12.85;9.52;;;15.90;99.90;;;;;;5045785;28;20424;-42
2023/07/22 05:03:04;;;;;;;11.77;8.93;;;16.00;99.90;;;;;;5045247;28;20028;-41
2023/07/22 05:05:29;;;;;;;15.18;10.13;;;15.90;99.90;;;;;;5045337;28;20036;-42
2023/07/22 05:07:55;;;;;;;17.48;11.35;;;15.90;99.90;;;;;;5044843;28;20017;-42
2023/07/22 05:10:21;;;;;;;14.38;10.15;;;16.00;99.90;;;;;;5045610;28;20033;-42
2023/07/22 05:12:46;;;;;;;13.02;10.32;;;16.00;99.90;;;;;;5044798;28;20864;-42
2023/07/22 05:15:16;;;;;;;13.40;10.20;;;16.10;99.90;;;;;;5045970;28;20025;-43
2023/07/22 05:17:41;;;;;;;12.75;9.88;;;16.10;99.90;;;;;;5044737;28;20484;-42
2023/07/22 05:20:12;;;;;;;15.35;10.20;;;16.10;99.90;;;;;;5045510;28;20689;-42
2023/07/22 05:22:41;;;;;;;15.95;10.18;;;16.20;99.90;;;;;;5045480;28;20029;-41
2023/07/22 05:25:07;;;;;;;13.45;9.18;;;16.20;99.90;;;;;;5044247;28;20021;-42
2023/07/22 05:27:33;;;;;;;13.88;8.85;;;16.20;99.90;;;;;;5045614;28;20032;-42
2023/07/22 05:29:59;;;;;;;14.20;9.43;;;16.20;99.90;;;;;;5044352;28;20803;-42
2023/07/22 05:32:24;;;;;;;12.90;9.35;;;16.20;99.90;;;;;;5044752;28;20206;-42
2023/07/22 05:34:50;;;;;;;12.05;8.80;;;16.20;99.90;;;;;;5044950;28;20017;-42
2023/07/22 05:37:16;;;;;;;11.85;9.50;;;16.20;99.90;;;;;;5045437;28;20086;-42
2023/07/22 05:39:41;;;;;;;13.68;9.95;;;16.30;99.90;;;;;;5044064;28;20036;-42
2023/07/22 05:42:07;;;;;;;16.25;10.45;;;16.30;99.90;;;;;;5045311;28;20115;-41
2023/07/22 05:44:32;;;;;;;14.65;9.68;;;16.40;99.90;;;;;;5044276;28;20029;-41
2023/07/22 05:46:58;;;;;;;16.05;10.73;;;16.50;99.90;;;;;;5044721;28;20060;-42
2023/07/22 05:49:24;;;;;;;14.90;10.40;;;16.60;99.90;;;;;;5044884;28;20021;-42
2023/07/22 05:51:49;;;;;;;13.65;10.18;;;16.70;99.90;;;;;;5044878;28;20044;-42
2023/07/22 05:54:15;;;;;;;14.00;10.65;;;16.70;99.90;;;;;;5044257;28;20021;-42
2023/07/22 05:56:41;;;;;;;12.80;9.63;;;16.80;99.90;;;;;;5044156;28;20061;-41
2023/07/22 05:59:07;;;;;;;11.75;9.77;;;16.80;99.90;;;;;;5044518;28;20722;-42
2023/07/22 06:01:32;;;;;;;14.05;10.50;;;16.70;99.90;;;;;;5043910;28;20036;-42
2023/07/22 06:03:58;;;;;;;14.63;10.85;;;16.70;99.90;;;;;;5044788;28;20021;-42
2023/07/22 06:06:24;;;;;;;12.52;9.77;;;16.80;99.90;;;;;;5044904;28;20072;-42
2023/07/22 06:08:49;;;;;;;14.13;9.82;;;16.80;99.90;;;;;;5043745;28;20122;-44
2023/07/22 06:11:15;;;;;;;14.50;10.07;;;16.90;99.90;;;;;;5044200;28;20056;-42
2023/07/22 06:13:40;;;;;;;13.10;9.35;;;17.00;99.90;;;;;;5044565;28;20028;-42
2023/07/22 06:16:06;;;;;;;13.90;10.43;;;17.10;99.90;;;;;;5044289;28;20037;-41
2023/07/22 06:18:31;;;;;;;13.48;9.82;;;17.20;99.90;;;;;;5044486;28;20033;-41
2023/07/22 06:20:57;;;;;;;15.80;10.45;;;17.20;99.90;;;;;;5044724;28;20024;-43
2023/07/22 06:23:23;;;;;;;14.70;11.15;;;17.30;99.90;;;;;;5043908;28;20028;-42
2023/07/22 06:25:48;;;;;;;14.50;10.18;;;17.30;99.90;;;;;;5044117;28;20021;-42
2023/07/22 06:28:14;;;;;;;13.85;9.70;;;17.30;99.90;;;;;;5043971;28;20025;-41
2023/07/22 06:30:39;;;;;;;15.40;9.95;;;17.30;99.90;;;;;;5044244;28;20536;-41
2023/07/22 06:33:05;;;;;;;14.93;11.35;;;17.30;99.90;;;;;;5044328;28;20029;-42
2023/07/22 06:35:31;;;;;;;13.05;10.40;;;17.30;99.90;;;;;;5045675;28;20013;-42
2023/07/22 06:37:56;;;;;;;14.15;9.93;;;17.40;99.90;;;;;;5048061;28;20040;-42
2023/07/22 06:40:22;;;;;;;13.15;9.68;;;17.40;99.90;;;;;;5048413;28;20076;-44
2023/07/22 06:42:47;;;;;;;12.50;9.52;;;17.50;99.90;;;;;;5047180;28;20572;-42
2023/07/22 06:45:13;;;;;;;12.32;9.43;;;17.60;99.90;;;;;;5048296;28;20052;-41
2023/07/22 06:47:38;;;;;;;12.48;9.35;;;17.70;99.90;;;;;;5047570;28;20029;-41
2023/07/22 06:50:05;;;;;;;12.07;9.57;;;17.70;99.90;;;;;;5047271;28;20388;-41
2023/07/22 06:52:31;;;;;;;12.65;9.63;;;17.80;99.90;;;;;;5047887;28;20025;-42
2023/07/22 06:54:57;;;;;;;12.85;9.25;;;17.80;99.90;;;;;;5047776;28;20061;-41
2023/07/22 06:57:23;;;;;;;12.25;9.25;;;17.80;99.90;;;;;;5046988;28;20168;-41
2023/07/22 06:59:50;;;;;;;11.05;8.73;;;17.80;99.90;;;;;;5047738;28;20104;-42
2023/07/22 07:02:16;;;;;;;12.13;8.80;;;17.80;99.90;;;;;;5047576;28;20762;-41
2023/07/22 07:04:41;;;;;;;12.30;8.85;;;17.80;99.90;;;;;;5047064;28;20029;-41
2023/07/22 07:07:07;;;;;;;11.25;8.65;;;17.80;99.90;;;;;;5047456;28;20475;-42
2023/07/22 07:09:35;;;;;;;10.73;8.57;;;17.90;99.90;;;;;;5047033;28;20714;-42
2023/07/22 07:12:01;;;;;;;11.05;7.97;;;17.90;99.90;;;;;;5046393;28;20024;-42
2023/07/22 07:14:27;;;;;;;10.75;8.48;;;17.90;99.90;;;;;;5047715;28;20036;-42
2023/07/22 07:16:52;;;;;;;11.65;8.88;;;18.00;99.90;;;;;;5047264;28;20061;-41
2023/07/22 07:19:21;;;;;;;11.77;8.07;;;18.00;99.90;;;;;;5046577;28;20502;-41
2023/07/22 07:21:46;;;;;;;12.80;9.05;;;18.00;99.90;;;;;;5047387;28;20029;-41
2023/07/22 07:24:12;;;;;;;12.15;8.32;;;18.10;99.90;;;;;;5046431;28;20472;-42
2023/07/22 07:26:38;;;;;;;10.45;9.25;;;18.20;99.90;;;;;;5046624;28;20036;-43
2023/07/22 07:29:09;;;;;;;13.63;9.30;;;18.30;99.90;;;;;;5046915;28;20107;-42
2023/07/22 07:31:35;;;;;;;13.07;9.93;;;18.50;99.90;;;;;;5046299;28;20481;-42
2023/07/22 07:34:01;;;;;;;12.77;8.75;;;18.60;99.90;;;;;;5047005;28;20074;-42
2023/07/22 07:36:26;;;;;;;11.88;8.18;;;18.80;99.90;;;;;;5047094;28;20047;-42
2023/07/22 07:38:52;;;;;;;13.52;9.15;;;18.90;99.90;;;;;;5046803;28;20029;-42
2023/07/22 07:41:17;;;;;;;11.35;8.82;;;19.00;99.90;;;;;;5047829;28;20033;-42
2023/07/22 07:43:44;;;;;;;13.35;9.45;;;19.10;99.90;;;;;;5047120;28;20139;-42
2023/07/22 07:46:13;;;;;;;10.70;8.82;;;19.10;99.90;;;;;;5044885;28;20032;-42
2023/07/22 07:48:41;;;;;;;11.68;7.95;;;19.20;99.90;;;;;;5046871;28;20024;-42
2023/07/22 07:51:07;;;;;;;12.02;7.93;;;19.20;99.90;;;;;;5046331;28;20451;-43
2023/07/22 07:53:32;;;;;;;11.25;8.35;;;19.30;99.90;;;;;;5045769;28;20103;-42
2023/07/22 07:55:58;;;;;;;11.27;7.20;;;19.40;99.90;;;;;;5046705;28;20029;-42
2023/07/22 07:58:24;;;;;;;9.63;7.25;;;19.50;99.90;;;;;;5047018;28;20040;-42
2023/07/22 08:00:49;;;;;;;10.02;7.47;;;19.60;99.90;;;;;;5045711;28;20025;-42
2023/07/22 08:03:15;;;;;;;9.38;7.35;;;19.80;99.90;;;;;;5046552;28;20025;-43
2023/07/22 08:05:40;;;;;;;9.80;7.07;;;19.90;99.90;;;;;;5046467;28;20025;-43
2023/07/22 08:08:06;;;;;;;8.68;7.40;;;20.00;99.90;;;;;;5046038;28;20048;-42
2023/07/22 08:10:32;;;;;;;9.90;7.97;;;20.00;99.90;;;;;;5046511;28;20029;-42
2023/07/22 08:13:00;;;;;;;13.88;8.18;;;20.10;99.90;;;;;;5046495;28;20061;-43
2023/07/22 08:15:28;;;;;;;8.80;7.00;;;20.10;99.90;;;;;;5045921;28;20025;-42
2023/07/22 08:17:53;;;;;;;8.20;6.60;;;20.10;99.90;;;;;;5046015;28;20058;-42
2023/07/22 08:20:25;;;;;;;7.85;6.45;;;20.20;99.90;;;;;;5046421;28;20027;-42
2023/07/22 08:22:50;;;;;;;9.00;6.40;;;20.20;99.90;;;;;;5045712;28;20585;-41
2023/07/22 08:25:16;;;;;;;8.90;5.88;;;20.30;99.90;;;;;;5045445;28;20489;-42
2023/07/22 08:27:41;;;;;;;9.02;6.63;;;20.40;99.90;;;;;;5045510;28;20122;-41
2023/07/22 08:30:07;;;;;;;7.32;6.13;;;20.50;99.90;;;;;;5045502;28;20025;-41
2023/07/22 08:32:33;;;;;;;8.05;6.63;;;20.60;99.90;;;;;;5045514;28;20033;-41
2023/07/22 08:34:59;;;;;;;7.28;6.18;;;20.60;99.90;;;;;;5044774;28;20100;-42
2023/07/22 08:37:27;;;;;;;7.88;6.25;;;20.60;99.90;;;;;;5046454;28;20033;-42
2023/07/22 08:39:53;;;;;;;6.88;5.65;;;20.60;99.90;;;;;;5045991;28;20028;-42
2023/07/22 08:42:20;;;;;;;6.40;5.63;;;20.70;99.90;;;;;;5045310;28;20021;-42
2023/07/22 08:44:49;;;;;;;9.57;6.75;;;20.70;99.90;;;;;;5046026;28;20056;-42
2023/07/22 08:47:19;;;;;;;6.93;6.18;;;20.70;99.90;;;;;;5045596;28;20479;-42
2023/07/22 08:49:50;;;;;;;9.52;6.22;;;20.70;99.90;;;;;;5045005;28;20063;-42
2023/07/22 08:52:19;;;;;;;7.25;5.88;;;20.80;99.90;;;;;;5045213;28;20064;-42
2023/07/22 08:54:46;;;;;;;8.00;6.00;;;20.80;99.90;;;;;;5045649;28;20032;-43
2023/07/22 08:57:12;;;;;;;8.50;6.03;;;20.90;99.90;;;;;;5044463;28;20235;-41
2023/07/22 08:59:40;;;;;;;7.03;5.35;;;21.00;99.90;;;;;;5045286;28;20938;-42
2023/07/22 09:02:12;;;;;;;7.78;5.50;;;21.10;99.90;;;;;;5044919;28;20025;-42
2023/07/22 09:04:39;;;;;;;8.38;6.10;;;21.10;99.90;;;;;;5045633;28;20029;-42
2023/07/22 09:07:06;;;;;;;6.85;5.78;;;21.10;99.90;;;;;;5045410;28;20052;-42
2023/07/22 09:09:34;;;;;;;8.25;5.82;;;21.00;99.90;;;;;;5045219;28;20061;-43
2023/07/22 09:12:03;;;;;;;7.85;6.10;;;21.10;99.90;;;;;;5043882;28;20036;-42
2023/07/22 09:14:31;;;;;;;7.93;6.63;;;21.10;99.90;;;;;;5045905;28;20105;-42
2023/07/22 09:16:58;;;;;;;7.38;6.20;;;21.20;99.90;;;;;;5044354;28;20116;-42
2023/07/22 09:19:23;;;;;;;5.85;4.78;;;21.30;99.90;;;;;;5045426;28;20107;-42
2023/07/22 09:21:49;;;;;;;8.00;5.30;;;21.30;99.90;;;;;;5045486;28;20103;-42
2023/07/22 09:24:22;;;;;;;6.72;5.22;;;21.30;99.90;;;;;;5043995;28;20141;-42
2023/07/22 09:26:48;;;;;;;6.00;4.47;;;21.30;99.90;;;;;;5044836;28;20112;-42
2023/07/22 09:29:14;;;;;;;7.10;4.53;;;21.20;99.90;;;;;;5045608;28;20120;-42
2023/07/22 09:31:56;;;;;;;5.68;4.50;;;21.20;99.90;;;;;;5043998;28;20388;-42
2023/07/22 09:34:22;;;;;;;7.45;4.90;;;21.20;99.90;;;;;;5035085;28;20115;-41
2023/07/22 09:37:00;;;;;;;4.60;4.10;;;21.20;99.90;;;;;;5044356;28;20119;-42
2023/07/22 09:39:29;;;;;;;3.95;3.40;;;21.20;99.90;;;;;;5034338;28;20025;-43
2023/07/22 09:41:55;;;;;;;6.15;3.95;;;21.20;99.90;;;;;;5045046;28;20013;-43
2023/07/22 09:44:21;;;;;;;4.07;3.67;;;21.30;99.90;;;;;;5044972;28;20487;-43
2023/07/22 09:46:48;;;;;;;4.15;3.47;;;21.30;99.90;;;;;;5044242;28;20021;-42
2023/07/22 09:49:16;;;;;;;5.07;4.22;;;21.40;99.90;;;;;;5040904;28;20024;-41
2023/07/22 09:51:42;;;;;;;5.43;4.07;;;21.40;99.90;;;;;;5044999;28;20075;-33
2023/07/22 09:54:08;;;;;;;7.35;4.35;;;21.50;99.90;;;;;;5044891;28;20025;-33
2023/07/22 09:56:48;;;;;;;5.53;4.50;;;21.60;99.90;;;;;;5045704;28;20095;-33
2023/07/22 09:59:24;;;;;;;5.63;4.22;;;21.70;99.90;;;;;;5044468;28;20759;-34
2023/07/22 10:01:51;;;;;;;4.60;3.72;;;21.90;99.90;;;;;;5045142;28;20139;-33
2023/07/22 10:04:18;;;;;;;4.57;3.90;;;22.00;99.90;;;;;;5044560;28;20029;-33
2023/07/22 10:06:43;;;;;;;5.03;3.55;;;22.10;99.90;;;;;;5044162;28;20492;-34
2023/07/22 10:09:11;;;;;;;5.00;4.50;;;22.10;99.90;;;;;;5044674;28;20064;-43
2023/07/22 10:11:38;;;;;;;4.80;3.75;;;22.20;99.60;;;;;;5048683;28;20029;-41
2023/07/22 10:14:05;;;;;;;5.53;4.35;;;22.20;99.50;;;;;;5047052;28;20139;-41
2023/07/22 10:16:31;;;;;;;5.53;3.90;;;22.20;99.40;;;;;;5049079;28;20036;-41
2023/07/22 10:18:58;;;;;;;4.15;3.60;;;22.20;99.10;;;;;;5048416;28;20103;-42
2023/07/22 10:21:28;;;;;;;4.25;3.67;;;22.20;99.20;;;;;;5048042;28;20025;-41
2023/07/22 10:23:55;;;;;;;7.75;4.25;;;22.20;99.20;;;;;;5048926;28;20060;-41
2023/07/22 10:26:20;;;;;;;7.20;4.10;;;22.20;98.90;;;;;;5048117;28;20187;-41
2023/07/22 10:28:47;;;;;;;4.90;3.88;;;22.20;98.70;;;;;;5047482;28;20544;-41
2023/07/22 10:31:20;;;;;;;5.30;3.53;;;22.20;98.70;;;;;;5048755;28;20100;-41
2023/07/22 10:33:49;;;;;;;4.00;3.47;;;22.20;98.80;;;;;;5048339;28;20044;-41
2023/07/22 10:36:18;;;;;;;5.47;3.80;;;22.30;98.80;;;;;;5036537;28;20086;-41
2023/07/22 10:38:44;;;;;;;3.67;3.28;;;22.30;98.70;;;;;;5047860;28;20059;-41
2023/07/22 10:41:16;;;;;;;4.93;4.05;;;22.40;98.70;;;;;;5048394;28;20025;-41
2023/07/22 10:43:54;;;;;;;4.40;3.50;;;22.40;98.60;;;;;;5048242;28;20036;-42
2023/07/22 10:46:34;;;;;;;4.82;3.83;;;22.40;98.50;;;;;;5046351;28;20024;-42
2023/07/22 10:49:11;;;;;;;4.70;3.92;;;22.40;98.30;;;;;;5047655;28;20078;-41
2023/07/22 10:51:37;;;;;;;3.72;3.28;;;22.30;98.20;;;;;;5047784;28;20029;-41
2023/07/22 10:54:10;;;;;;;4.47;3.22;;;22.30;98.10;;;;;;5047785;28;20076;-42
2023/07/22 10:56:35;;;;;;;4.50;3.40;;;22.30;98.20;;;;;;5047544;28;20041;-41
2023/07/22 10:59:03;;;;;;;4.72;3.15;;;22.30;98.00;;;;;;5048389;28;20063;-42
2023/07/22 11:01:36;;;;;;;3.83;3.00;;;22.30;98.10;;;;;;5048018;28;20487;-42
2023/07/22 11:04:17;;;;;;;4.57;3.22;;;22.30;97.80;;;;;;5047650;28;20056;-43
2023/07/22 11:06:49;;;;;;;3.03;2.70;;;22.20;97.40;;;;;;5046986;28;20036;-40
2023/07/22 11:09:27;;;;;;;4.20;3.20;;;22.00;97.50;;;;;;5047602;28;20041;-42
2023/07/22 11:11:54;;;;;;;4.10;2.83;;;21.80;97.30;;;;;;5046521;28;20044;-42
2023/07/22 11:14:24;;;;;;;4.47;3.10;;;21.70;97.60;;;;;;5047598;28;20025;-41
2023/07/22 11:16:50;;;;;;;3.53;2.90;;;21.60;97.70;;;;;;5046637;28;20037;-42
2023/07/22 11:19:17;;;;;;;4.93;3.33;;;21.40;97.70;;;;;;5047458;28;20025;-42
2023/07/22 11:21:43;;;;;;;6.03;2.97;;;21.40;97.40;;;;;;5047180;28;20040;-42
2023/07/22 11:24:09;;;;;;;3.60;2.80;;;21.30;97.30;;;;;;5026737;28;20389;-42
2023/07/22 11:26:35;;;;;;;4.55;2.80;;;21.20;97.20;;;;;;5041421;28;20028;-42
2023/07/22 11:29:06;;;;;;;4.03;2.60;;;21.20;97.40;;;;;;5047957;28;20568;-41
2023/07/22 11:31:42;;;;;;;3.75;2.38;;;21.20;97.50;;;;;;5046361;28;20032;-41
2023/07/22 11:34:13;;;;;;;3.40;2.22;;;21.20;97.60;;;;;;5047179;28;20029;-41
2023/07/22 11:36:38;;;;;;;4.40;2.65;;;21.10;97.80;;;;;;5047081;28;20037;-41
2023/07/22 11:39:06;;;;;;;3.47;2.70;;;21.10;97.80;;;;;;5046111;28;20402;-42
2023/07/22 11:41:32;;;;;;;4.53;2.78;;;21.10;98.00;;;;;;5046602;28;20116;-42
2023/07/22 11:44:02;;;;;;;3.47;2.70;;;21.00;98.10;;;;;;5047156;28;20053;-41
2023/07/22 11:46:31;;;;;;;4.28;3.30;;;21.00;98.20;;;;;;5046440;28;20017;-42
2023/07/22 11:48:56;;;;;;;3.55;2.60;;;21.10;98.30;;;;;;5047073;28;20032;-42
2023/07/22 11:51:23;;;;;;;4.22;2.42;;;21.20;98.20;;;;;;5046513;28;20347;-42
2023/07/22 11:53:50;;;;;;;2.75;2.20;;;21.30;98.10;;;;;;5046034;28;20025;-42
2023/07/22 11:56:25;;;;;;;5.25;2.50;;;21.40;98.10;;;;;;5046558;28;20020;-43
2023/07/22 11:58:52;;;;;;;3.50;2.58;;;21.30;98.10;;;;;;5045962;28;20032;-42
2023/07/22 12:01:18;;;;;;;3.08;2.15;;;21.30;98.30;;;;;;5046269;28;20029;-43
2023/07/22 12:03:44;;;;;;;3.47;2.42;;;21.30;98.40;;;;;;5046152;28;20438;-43
2023/07/22 12:06:11;;;;;;;3.67;2.35;;;21.30;98.30;;;;;;5046000;28;20653;-42
2023/07/22 12:08:42;;;;;;;1.98;1.77;;;21.40;98.20;;;;;;5046347;28;20041;-43
2023/07/22 12:11:08;;;;;;;2.83;2.60;;;21.70;98.00;;;;;;5046416;28;20451;-43
2023/07/22 12:13:37;;;;;;;3.35;2.20;;;21.90;97.20;;;;;;5045499;28;20033;-43
2023/07/22 12:16:14;;;;;;;2.47;1.92;;;22.10;97.10;;;;;;5046231;28;20459;-42
2023/07/22 12:18:46;;;;;;;2.35;2.08;;;22.30;97.00;;;;;;5046548;28;20029;-43
2023/07/22 12:21:13;;;;;;;4.55;2.08;;;22.50;96.90;;;;;;5046284;28;20212;-42
2023/07/22 12:23:39;;;;;;;3.25;2.10;;;22.70;96.70;;;;;;5046830;28;20017;-42
2023/07/22 12:26:05;;;;;;;2.85;1.92;;;22.80;96.30;;;;;;5046289;28;20017;-42
2023/07/22 12:28:31;;;;;;;1.90;1.60;;;22.70;96.20;;;;;;5045192;28;20610;-42
2023/07/22 12:30:57;;;;;;;2.03;1.73;;;22.60;96.30;;;;;;5047279;28;20102;-42
2023/07/22 12:33:26;;;;;;;2.28;1.42;;;22.40;96.30;;;;;;5045827;28;20587;-42
2023/07/22 12:35:56;;;;;;;1.52;1.42;;;22.20;96.50;;;;;;5045516;28;20021;-42
2023/07/22 12:38:22;;;;;;;1.88;1.48;;;22.10;96.80;;;;;;5046133;28;20052;-42
2023/07/22 12:40:47;;;;;;;2.35;1.50;;;21.90;96.80;;;;;;5044880;28;20118;-42